createdAt,value
2018-07-25T00:01:05.208Z,21.15
2018-07-25T00:03:33.495Z,21.19
2018-07-25T00:06:01.707Z,21.24
2018-07-25T00:08:29.931Z,21.06
2018-07-25T00:10:58.145Z,20.98
2018-07-25T00:13:27.230Z,20.90
2018-07-25T00:15:55.837Z,20.88
2018-07-25T00:18:24.055Z,20.94
2018-07-25T00:20:52.305Z,21.01
2018-07-25T00:23:20.542Z,21.07
2018-07-25T00:25:48.742Z,21.01
2018-07-25T00:28:16.947Z,20.96
2018-07-25T00:30:45.168Z,20.94
2018-07-25T00:33:13.372Z,20.92
2018-07-25T00:35:41.574Z,20.93
2018-07-25T00:38:09.859Z,20.82
2018-07-25T00:40:38.191Z,20.90
2018-07-25T00:43:06.579Z,20.81
2018-07-25T00:45:34.806Z,20.81
2018-07-25T00:48:03.058Z,20.94
2018-07-25T00:50:31.298Z,20.81
2018-07-25T00:52:59.507Z,20.79
2018-07-25T00:55:27.764Z,20.92
2018-07-25T00:57:56.164Z,21.06
2018-07-25T01:00:24.365Z,20.87
2018-07-25T01:02:52.587Z,20.72
2018-07-25T01:05:20.798Z,20.66
2018-07-25T01:07:48.998Z,20.65
2018-07-25T01:10:17.214Z,20.58
2018-07-25T01:12:45.502Z,20.45
2018-07-25T01:15:13.714Z,20.45
2018-07-25T01:17:41.956Z,20.48
2018-07-25T01:20:10.186Z,20.53
2018-07-25T01:22:38.398Z,20.57
2018-07-25T01:25:06.647Z,20.59
2018-07-25T01:27:34.898Z,20.53
2018-07-25T01:30:03.155Z,20.44
2018-07-25T01:32:31.362Z,20.40
2018-07-25T01:34:59.574Z,20.40
2018-07-25T01:37:27.851Z,20.41
2018-07-25T01:39:56.075Z,20.48
2018-07-25T01:42:24.290Z,20.41
2018-07-25T01:44:52.513Z,20.61
2018-07-25T01:47:20.714Z,20.53
2018-07-25T01:49:48.918Z,20.43
2018-07-25T01:52:17.134Z,20.31
2018-07-25T01:54:45.338Z,20.30
2018-07-25T01:57:13.634Z,20.20
2018-07-25T01:59:41.850Z,20.18
2018-07-25T02:02:10.163Z,20.10
2018-07-25T02:04:38.423Z,20.13
2018-07-25T02:07:06.886Z,20.14
2018-07-25T02:09:35.192Z,20.03
2018-07-25T02:12:03.445Z,20.01
2018-07-25T02:14:31.654Z,19.97
2018-07-25T02:16:59.903Z,19.88
2018-07-25T02:19:28.181Z,19.79
2018-07-25T02:21:56.356Z,19.83
2018-07-25T02:24:24.576Z,19.87
2018-07-25T02:26:52.782Z,19.86
2018-07-25T02:29:20.989Z,19.94
2018-07-25T02:31:49.302Z,19.89
2018-07-25T02:34:21.834Z,19.75
2018-07-25T02:36:51.164Z,19.75
2018-07-25T02:39:19.378Z,19.82
2018-07-25T02:41:47.595Z,19.61
2018-07-25T02:44:16.035Z,19.46
2018-07-25T02:46:44.307Z,19.44
2018-07-25T02:49:12.540Z,19.42
2018-07-25T02:51:40.776Z,19.44
2018-07-25T02:54:09.095Z,19.40
2018-07-25T02:56:37.341Z,19.44
2018-07-25T02:59:05.603Z,19.35
2018-07-25T03:01:34.248Z,19.32
2018-07-25T03:04:02.481Z,19.29
2018-07-25T03:06:30.939Z,19.29
2018-07-25T03:08:59.170Z,19.32
2018-07-25T03:11:27.399Z,19.32
2018-07-25T03:13:55.626Z,19.38
2018-07-25T03:16:23.832Z,19.50
2018-07-25T03:18:52.050Z,19.45
2018-07-25T03:21:20.295Z,19.49
2018-07-25T03:23:48.620Z,19.43
2018-07-25T03:26:16.828Z,19.49
2018-07-25T03:28:45.038Z,19.51
2018-07-25T03:31:13.260Z,19.53
2018-07-25T03:33:41.453Z,19.55
2018-07-25T03:36:09.692Z,19.55
2018-07-25T03:38:37.915Z,19.51
2018-07-25T03:41:06.414Z,19.58
2018-07-25T03:43:34.638Z,19.53
2018-07-25T03:46:02.871Z,19.61
2018-07-25T03:48:31.112Z,19.50
2018-07-25T03:50:59.327Z,19.39
2018-07-25T03:53:27.526Z,19.34
2018-07-25T03:55:55.735Z,19.34
2018-07-25T03:58:23.970Z,19.32
2018-07-25T04:00:52.217Z,19.36
2018-07-25T04:03:51.365Z,19.30
2018-07-25T04:06:19.622Z,19.34
2018-07-25T04:08:47.847Z,19.39
2018-07-25T04:11:16.071Z,19.42
2018-07-25T04:13:44.290Z,19.42
2018-07-25T04:16:12.519Z,19.48
2018-07-25T04:18:40.738Z,19.52
2018-07-25T04:21:08.958Z,19.62
2018-07-25T04:23:37.159Z,19.63
2018-07-25T04:26:05.450Z,19.56
2018-07-25T04:28:33.655Z,19.51
2018-07-25T04:31:01.870Z,19.48
2018-07-25T04:33:30.100Z,19.46
2018-07-25T04:35:58.310Z,19.45
2018-07-25T04:38:26.576Z,19.56
2018-07-25T04:40:54.799Z,19.66
2018-07-25T04:43:23.006Z,19.74
2018-07-25T04:45:51.226Z,19.68
2018-07-25T04:48:19.438Z,19.77
2018-07-25T04:50:47.730Z,19.94
2018-07-25T04:53:15.934Z,19.94
2018-07-25T04:55:44.153Z,19.94
2018-07-25T04:58:12.371Z,20.03
2018-07-25T05:00:40.608Z,20.12
2018-07-25T05:03:08.842Z,20.24
2018-07-25T05:05:37.070Z,20.27
2018-07-25T05:08:05.367Z,20.26
2018-07-25T05:10:33.590Z,20.48
2018-07-25T05:13:01.816Z,20.64
2018-07-25T05:15:30.069Z,20.77
2018-07-25T05:17:58.366Z,20.83
2018-07-25T05:20:26.675Z,21.00
2018-07-25T05:22:55.190Z,21.06
2018-07-25T05:25:24.663Z,21.06
2018-07-25T05:27:52.906Z,21.02
2018-07-25T05:30:21.167Z,21.17
2018-07-25T05:32:49.398Z,21.24
2018-07-25T05:35:17.620Z,21.19
2018-07-25T05:37:45.843Z,21.26
2018-07-25T05:40:14.086Z,21.40
2018-07-25T05:42:42.303Z,21.54
2018-07-25T05:45:10.546Z,21.43
2018-07-25T05:47:38.783Z,21.57
2018-07-25T05:50:07.078Z,21.71
2018-07-25T05:52:35.351Z,21.82
2018-07-25T05:55:04.062Z,21.67
2018-07-25T05:57:32.282Z,21.89
2018-07-25T06:00:00.520Z,21.84
2018-07-25T06:02:28.728Z,21.86
2018-07-25T06:04:56.958Z,21.82
2018-07-25T06:07:25.166Z,21.74
2018-07-25T06:09:53.398Z,21.91
2018-07-25T06:12:21.632Z,21.96
2018-07-25T06:14:49.847Z,22.05
2018-07-25T06:17:18.100Z,22.02
2018-07-25T06:19:46.299Z,22.10
2018-07-25T06:22:14.538Z,22.15
2018-07-25T06:24:42.779Z,22.15
2018-07-25T06:27:10.995Z,22.38
2018-07-25T06:29:39.202Z,22.46
2018-07-25T06:32:07.438Z,22.57
2018-07-25T06:34:35.671Z,22.59
2018-07-25T06:37:03.890Z,22.65
2018-07-25T06:39:32.109Z,22.57
2018-07-25T06:42:00.346Z,22.48
2018-07-25T06:44:28.571Z,22.61
2018-07-25T06:46:56.815Z,22.82
2018-07-25T06:49:25.035Z,22.93
2018-07-25T06:51:53.271Z,22.95
2018-07-25T06:54:21.479Z,22.91
2018-07-25T06:56:49.712Z,22.97
2018-07-25T06:59:17.979Z,23.08
2018-07-25T07:01:46.235Z,23.07
2018-07-25T07:04:14.480Z,23.34
2018-07-25T07:06:42.732Z,23.38
2018-07-25T07:09:11.698Z,23.32
2018-07-25T07:11:39.955Z,23.61
2018-07-25T07:14:08.204Z,23.61
2018-07-25T07:16:36.519Z,23.69
2018-07-25T07:19:04.799Z,23.82
2018-07-25T07:21:33.259Z,24.02
2018-07-25T07:24:01.489Z,24.00
2018-07-25T07:26:29.726Z,23.97
2018-07-25T07:28:58.056Z,24.25
2018-07-25T07:31:26.395Z,24.41
2018-07-25T07:33:54.621Z,24.31
2018-07-25T07:36:23.344Z,24.45
2018-07-25T07:38:51.611Z,24.70
2018-07-25T07:41:19.887Z,24.79
2018-07-25T07:43:48.210Z,24.87
2018-07-25T07:46:16.534Z,25.11
2018-07-25T07:48:44.782Z,25.04
2018-07-25T07:51:13.040Z,24.99
2018-07-25T07:53:41.274Z,25.20
2018-07-25T07:56:09.534Z,25.35
2018-07-25T07:58:37.843Z,25.32
2018-07-25T08:01:06.097Z,25.36
2018-07-25T08:03:34.322Z,25.66
2018-07-25T08:06:02.732Z,25.79
2018-07-25T08:08:31.105Z,25.71
2018-07-25T08:10:59.342Z,25.72
2018-07-25T08:13:27.609Z,25.81
2018-07-25T08:15:55.899Z,25.97
2018-07-25T08:18:24.127Z,25.86
2018-07-25T08:20:52.395Z,26.14
2018-07-25T08:23:20.668Z,26.53
2018-07-25T08:25:49.003Z,26.62
2018-07-25T08:28:17.202Z,26.54
2018-07-25T08:30:45.454Z,26.58
2018-07-25T08:33:13.664Z,26.57
2018-07-25T08:35:41.903Z,26.83
2018-07-25T08:38:10.142Z,26.65
2018-07-25T08:40:38.390Z,26.80
2018-07-25T08:43:06.939Z,26.86
2018-07-25T08:45:35.204Z,26.86
2018-07-25T08:48:03.431Z,27.00
2018-07-25T08:50:31.672Z,27.29
2018-07-25T08:52:59.916Z,27.27
2018-07-25T08:55:28.211Z,27.48
2018-07-25T08:57:56.447Z,27.62
2018-07-25T09:00:24.710Z,27.74
2018-07-25T09:02:52.995Z,27.77
2018-07-25T09:05:21.223Z,27.53
2018-07-25T09:07:49.452Z,27.67
2018-07-25T09:10:17.687Z,27.72
2018-07-25T09:12:45.915Z,27.85
2018-07-25T09:15:14.116Z,28.02
2018-07-25T09:17:42.366Z,28.12
2018-07-25T09:20:10.601Z,28.31
2018-07-25T09:22:38.799Z,28.48
2018-07-25T09:25:07.068Z,28.54
2018-07-25T09:27:35.262Z,28.72
2018-07-25T09:30:03.513Z,28.80
2018-07-25T09:32:31.759Z,29.09
2018-07-25T09:34:59.975Z,29.23
2018-07-25T09:37:28.197Z,29.15
2018-07-25T09:39:56.447Z,29.02
2018-07-25T09:42:24.702Z,29.21
2018-07-25T09:44:52.914Z,29.30
2018-07-25T09:47:21.138Z,29.47
2018-07-25T09:49:49.334Z,29.63
2018-07-25T09:52:17.538Z,29.87
2018-07-25T09:54:45.781Z,29.88
2018-07-25T09:57:13.970Z,29.87
2018-07-25T09:59:42.209Z,29.58
2018-07-25T10:02:10.403Z,30.00
2018-07-25T10:04:38.612Z,30.24
2018-07-25T10:07:06.854Z,30.22
2018-07-25T10:09:35.062Z,30.14
2018-07-25T10:12:03.325Z,30.32
2018-07-25T10:14:31.533Z,30.48
2018-07-25T10:16:59.763Z,30.38
2018-07-25T10:19:27.971Z,30.20
2018-07-25T10:21:56.215Z,30.49
2018-07-25T10:24:24.426Z,30.39
2018-07-25T10:26:52.744Z,30.22
2018-07-25T10:29:20.942Z,30.41
2018-07-25T10:31:49.168Z,30.48
2018-07-25T10:34:17.367Z,30.58
2018-07-25T10:36:45.587Z,30.67
2018-07-25T10:39:13.825Z,30.42
2018-07-25T10:41:42.023Z,30.33
2018-07-25T10:44:10.240Z,30.60
2018-07-25T10:46:38.448Z,30.85
2018-07-25T10:49:06.683Z,31.05
2018-07-25T10:51:34.889Z,30.99
2018-07-25T10:54:03.108Z,31.05
2018-07-25T10:56:31.318Z,30.73
2018-07-25T10:58:59.575Z,30.58
2018-07-25T11:01:27.894Z,30.80
2018-07-25T11:03:56.121Z,30.99
2018-07-25T11:06:24.338Z,31.10
2018-07-25T11:09:31.605Z,30.83
2018-07-25T11:12:01.248Z,30.73
2018-07-25T11:14:29.461Z,30.99
2018-07-25T11:16:57.699Z,31.09
2018-07-25T11:19:25.934Z,31.11
2018-07-25T11:21:54.182Z,31.11
2018-07-25T11:24:22.428Z,30.92
2018-07-25T11:26:50.662Z,30.69
2018-07-25T11:29:18.888Z,30.64
2018-07-25T11:31:47.131Z,30.49
2018-07-25T11:34:15.342Z,30.74
2018-07-25T11:36:43.591Z,30.82
2018-07-25T11:39:13.079Z,30.94
2018-07-25T11:41:41.298Z,30.82
2018-07-25T11:44:09.521Z,30.88
2018-07-25T11:46:37.763Z,31.08
2018-07-25T11:49:06.220Z,30.89
2018-07-25T11:51:34.431Z,31.10
2018-07-25T11:54:02.659Z,30.89
2018-07-25T11:56:30.930Z,31.14
2018-07-25T11:58:59.166Z,31.28
2018-07-25T12:01:27.562Z,31.43
2018-07-25T12:03:55.971Z,31.17
2018-07-25T12:06:24.628Z,31.15
2018-07-25T12:08:53.189Z,31.10
2018-07-25T12:11:21.415Z,30.93
2018-07-25T12:13:49.823Z,30.80
2018-07-25T12:16:18.257Z,30.70
2018-07-25T12:18:46.754Z,30.80
2018-07-25T12:21:15.160Z,30.98
2018-07-25T12:23:43.338Z,31.24
2018-07-25T12:26:11.583Z,31.19
2018-07-25T12:28:39.868Z,31.20
2018-07-25T12:31:08.292Z,31.20
2018-07-25T12:33:36.618Z,31.46
2018-07-25T12:36:05.434Z,31.45
2018-07-25T12:38:33.638Z,31.15
2018-07-25T12:41:01.890Z,31.05
2018-07-25T12:43:30.111Z,31.19
2018-07-25T12:45:58.397Z,31.22
2018-07-25T12:48:26.667Z,31.37
2018-07-25T12:50:54.950Z,31.26
2018-07-25T12:53:23.169Z,31.56
2018-07-25T12:55:51.399Z,31.36
2018-07-25T12:58:19.610Z,31.34
2018-07-25T13:00:47.838Z,31.20
2018-07-25T13:03:16.053Z,31.40
2018-07-25T13:05:44.278Z,31.43
2018-07-25T13:08:12.499Z,31.89
2018-07-25T13:10:40.735Z,31.37
2018-07-25T13:13:08.974Z,31.59
2018-07-25T13:15:37.260Z,31.82
2018-07-25T13:18:05.861Z,31.72
2018-07-25T13:20:34.091Z,31.85
2018-07-25T13:23:02.336Z,31.91
2018-07-25T13:28:20.639Z,31.81
2018-07-25T13:30:48.876Z,31.73
2018-07-25T13:33:17.087Z,31.89
2018-07-25T13:35:45.317Z,31.90
2018-07-25T13:38:13.533Z,31.99
2018-07-25T13:40:41.732Z,32.09
2018-07-25T13:43:09.982Z,32.06
2018-07-25T13:45:38.301Z,32.11
2018-07-25T13:48:06.466Z,32.00
2018-07-25T13:50:34.688Z,32.37
2018-07-25T13:53:03.210Z,32.10
2018-07-25T13:55:31.410Z,32.43
2018-07-25T13:57:59.881Z,32.68
2018-07-25T14:00:28.082Z,32.39
2018-07-25T14:02:56.299Z,32.69
2018-07-25T14:05:24.508Z,32.79
2018-07-25T14:07:52.726Z,32.91
2018-07-25T14:10:20.969Z,32.64
2018-07-25T14:12:49.196Z,32.50
2018-07-25T14:15:17.406Z,31.90
2018-07-25T14:17:45.639Z,31.46
2018-07-25T14:20:13.854Z,30.85
2018-07-25T14:22:42.066Z,31.06
2018-07-25T14:25:10.323Z,30.86
2018-07-25T14:27:38.750Z,30.91
2018-07-25T14:30:07.126Z,30.90
2018-07-25T14:32:35.537Z,30.93
2018-07-25T14:35:03.800Z,30.79
2018-07-25T14:37:32.030Z,30.75
2018-07-25T14:40:00.432Z,30.66
2018-07-25T14:42:28.437Z,30.58
2018-07-25T14:44:56.750Z,30.71
2018-07-25T14:47:24.958Z,30.85
2018-07-25T14:49:53.158Z,31.04
2018-07-25T14:52:21.390Z,30.90
2018-07-25T14:54:49.570Z,30.64
2018-07-25T14:57:17.778Z,30.53
2018-07-25T14:59:45.982Z,30.41
2018-07-25T15:02:14.237Z,30.41
2018-07-25T15:04:42.668Z,30.48
2018-07-25T15:07:11.890Z,30.33
2018-07-25T15:09:40.119Z,30.22
2018-07-25T15:12:08.600Z,30.21
2018-07-25T15:14:36.833Z,30.17
2018-07-25T15:17:05.062Z,30.20
2018-07-25T15:19:33.558Z,30.21
2018-07-25T15:22:01.882Z,30.25
2018-07-25T15:24:30.071Z,30.26
2018-07-25T15:26:58.278Z,30.22
2018-07-25T15:29:26.507Z,30.29
2018-07-25T15:31:54.678Z,30.38
2018-07-25T15:34:22.909Z,30.39
2018-07-25T15:36:52.363Z,30.36
2018-07-25T15:39:24.662Z,30.38
2018-07-25T15:41:53.758Z,30.51
2018-07-25T15:44:22.965Z,31.18
2018-07-25T15:46:51.246Z,30.88
2018-07-25T15:49:19.426Z,30.90
2018-07-25T15:51:47.671Z,30.93
2018-07-25T15:54:15.957Z,30.89
2018-07-25T15:56:44.191Z,30.86
2018-07-25T15:59:12.486Z,30.97
2018-07-25T16:01:40.746Z,31.14
2018-07-25T16:04:09.105Z,31.32
2018-07-25T16:06:37.379Z,31.34
2018-07-25T16:09:08.961Z,31.18
2018-07-25T16:11:37.609Z,31.01
2018-07-25T16:14:05.843Z,31.01
2018-07-25T16:16:34.069Z,31.21
2018-07-25T16:19:02.334Z,32.21
2018-07-25T16:21:30.628Z,32.89
2018-07-25T16:23:58.923Z,33.79
2018-07-25T16:26:27.110Z,34.64
2018-07-25T16:28:55.546Z,34.83
2018-07-25T16:31:23.774Z,35.24
2018-07-25T16:33:52.015Z,37.03
2018-07-25T16:36:20.305Z,36.12
2018-07-25T16:38:48.514Z,36.17
2018-07-25T16:41:16.726Z,36.17
2018-07-25T16:43:44.984Z,36.19
2018-07-25T16:46:13.177Z,35.51
2018-07-25T16:48:41.374Z,34.92
2018-07-25T16:54:41.315Z,34.40
2018-07-25T16:57:09.578Z,34.75
2018-07-25T16:59:37.822Z,36.07
2018-07-25T17:02:06.138Z,35.15
2018-07-25T17:04:34.333Z,35.35
2018-07-25T17:07:02.558Z,34.54
2018-07-25T17:09:30.817Z,34.35
2018-07-25T17:11:59.061Z,34.61
2018-07-25T17:14:27.284Z,33.07
2018-07-25T17:16:55.542Z,32.23
2018-07-25T17:19:23.758Z,32.06
2018-07-25T17:21:51.970Z,31.44
2018-07-25T17:24:20.193Z,31.11
2018-07-25T17:26:48.402Z,30.87
2018-07-25T17:29:16.674Z,30.73
2018-07-25T17:31:44.885Z,30.44
2018-07-25T17:34:13.089Z,30.27
2018-07-25T17:36:41.302Z,30.28
2018-07-25T17:39:10.975Z,30.28
2018-07-25T17:41:39.723Z,30.38
2018-07-25T17:44:07.950Z,30.13
2018-07-25T17:46:36.190Z,30.22
2018-07-25T17:49:04.443Z,29.98
2018-07-25T17:51:32.646Z,29.90
2018-07-25T17:54:00.870Z,29.74
2018-07-25T17:56:29.108Z,29.66
2018-07-25T17:58:57.298Z,29.69
2018-07-25T18:01:25.538Z,29.66
2018-07-25T18:03:53.799Z,29.79
2018-07-25T18:06:22.046Z,29.86
2018-07-25T18:08:50.262Z,30.05
2018-07-25T18:11:18.463Z,29.96
2018-07-25T18:13:51.954Z,29.73
2018-07-25T18:16:20.162Z,29.80
2018-07-25T18:18:48.362Z,29.68
2018-07-25T18:21:16.591Z,29.54
2018-07-25T18:23:44.797Z,29.48
2018-07-25T18:26:13.010Z,29.47
2018-07-25T18:28:41.213Z,29.25
2018-07-25T18:31:09.446Z,29.33
2018-07-25T18:33:37.644Z,29.39
2018-07-25T18:36:05.857Z,29.08
2018-07-25T18:38:34.067Z,29.23
2018-07-25T18:41:02.285Z,29.11
2018-07-25T18:43:30.518Z,29.00
2018-07-25T18:45:58.720Z,29.01
2018-07-25T18:48:26.941Z,28.76
2018-07-25T18:50:55.154Z,28.71
2018-07-25T18:53:23.370Z,28.84
2018-07-25T18:55:51.582Z,28.71
2018-07-25T18:58:19.827Z,28.71
2018-07-25T19:00:48.059Z,28.59
2018-07-25T19:03:16.260Z,28.55
2018-07-25T19:05:44.466Z,28.56
2018-07-25T19:08:12.694Z,28.37
2018-07-25T19:10:40.939Z,28.24
2018-07-25T19:13:14.458Z,28.13
2018-07-25T19:15:42.665Z,28.03
2018-07-25T19:18:10.866Z,28.02
2018-07-25T19:20:39.079Z,27.79
2018-07-25T19:23:07.262Z,27.59
2018-07-25T19:25:35.471Z,27.37
2018-07-25T19:28:03.684Z,27.14
2018-07-25T19:30:31.889Z,27.09
2018-07-25T19:33:00.102Z,26.92
2018-07-25T19:35:28.318Z,26.91
2018-07-25T19:37:56.530Z,26.77
2018-07-25T19:40:24.741Z,26.90
2018-07-25T19:42:53.014Z,26.92
2018-07-25T19:45:21.281Z,26.74
2018-07-25T19:47:49.492Z,26.69
2018-07-25T19:50:17.959Z,26.63
2018-07-25T19:52:46.110Z,26.50
2018-07-25T19:55:14.322Z,26.58
2018-07-25T19:57:42.570Z,26.68
2018-07-25T20:00:16.380Z,26.54
2018-07-25T20:02:39.018Z,26.55
2018-07-25T20:05:07.650Z,26.66
2018-07-25T20:07:36.147Z,26.61
2018-07-25T20:10:04.606Z,26.42
2018-07-25T20:12:32.869Z,26.30
2018-07-25T20:15:06.326Z,26.19
2018-07-25T20:17:34.534Z,26.11
2018-07-25T20:20:02.783Z,26.05
2018-07-25T20:22:31.003Z,26.14
2018-07-25T20:24:59.455Z,26.05
2018-07-25T20:27:27.678Z,25.98
2018-07-25T20:29:55.882Z,26.11
2018-07-25T20:32:24.135Z,25.89
2018-07-25T20:34:52.350Z,25.89
2018-07-25T20:37:20.615Z,25.66
2018-07-25T20:39:48.814Z,25.62
2018-07-25T20:42:17.081Z,25.52
2018-07-25T20:44:45.277Z,25.43
2018-07-25T20:47:13.545Z,25.33
2018-07-25T20:49:41.761Z,25.35
2018-07-25T20:52:09.983Z,25.34
2018-07-25T20:54:38.186Z,25.34
2018-07-25T20:57:06.406Z,25.27
2018-07-25T20:59:34.652Z,25.30
2018-07-25T21:02:02.854Z,25.23
2018-07-25T21:04:31.083Z,25.30
2018-07-25T21:06:59.286Z,25.31
2018-07-25T21:09:27.494Z,25.28
2018-07-25T21:11:55.710Z,25.27
2018-07-25T21:14:23.960Z,25.41
2018-07-25T21:16:52.178Z,25.51
2018-07-25T21:19:20.394Z,25.35
2018-07-25T21:21:48.681Z,25.28
2018-07-25T21:24:16.842Z,25.18
2018-07-25T21:26:45.055Z,25.18
2018-07-25T21:29:13.282Z,25.19
2018-07-25T21:31:41.486Z,25.13
2018-07-25T21:34:09.722Z,25.05
2018-07-25T21:36:37.949Z,24.98
2018-07-25T21:39:08.570Z,24.97
2018-07-25T21:41:36.777Z,24.93
2018-07-25T21:44:05.027Z,24.96
2018-07-25T21:46:33.321Z,25.01
2018-07-25T21:49:01.515Z,25.01
2018-07-25T21:51:29.721Z,24.96
2018-07-25T21:53:57.945Z,24.90
2018-07-25T21:56:26.220Z,24.85
2018-07-25T21:58:54.491Z,24.75
2018-07-25T22:01:22.698Z,24.69
2018-07-25T22:03:51.012Z,24.76
2018-07-25T22:06:19.137Z,24.67
2018-07-25T22:08:47.347Z,24.65
2018-07-25T22:11:15.580Z,24.56
2018-07-25T22:13:49.090Z,24.55
2018-07-25T22:16:17.291Z,24.47
2018-07-25T22:18:45.930Z,24.52
2018-07-25T22:21:14.463Z,24.35
2018-07-25T22:23:42.683Z,24.30
2018-07-25T22:26:10.881Z,24.30
2018-07-25T22:28:39.160Z,24.16
2018-07-25T22:31:07.369Z,24.03
2018-07-25T22:33:35.587Z,23.88
2018-07-25T22:36:03.942Z,23.73
2018-07-25T22:38:32.165Z,23.61
2018-07-25T22:41:00.388Z,23.53
2018-07-25T22:43:28.631Z,23.41
2018-07-25T22:45:56.901Z,23.37
2018-07-25T22:48:25.200Z,23.37
2018-07-25T22:50:53.446Z,23.34
2018-07-25T22:53:21.658Z,23.32
2018-07-25T22:55:49.950Z,23.26
2018-07-25T22:58:18.156Z,23.24
2018-07-25T23:00:46.382Z,23.12
2018-07-25T23:03:14.594Z,23.19
2018-07-25T23:05:42.802Z,23.09
2018-07-25T23:08:11.032Z,22.96
2018-07-25T23:10:39.257Z,22.90
2018-07-25T23:13:07.461Z,22.98
2018-07-25T23:15:35.688Z,22.89
2018-07-25T23:18:03.934Z,22.84
2018-07-25T23:20:32.134Z,22.86
2018-07-25T23:23:01.203Z,22.84
2018-07-25T23:25:29.803Z,23.07
2018-07-25T23:27:59.105Z,23.06
2018-07-25T23:30:28.537Z,23.13
2018-07-25T23:32:56.765Z,22.96
2018-07-25T23:35:24.982Z,22.93
2018-07-25T23:37:53.212Z,23.12
2018-07-25T23:40:21.482Z,23.29
2018-07-25T23:42:50.222Z,23.04
2018-07-25T23:45:18.768Z,22.91
2018-07-25T23:47:46.977Z,22.88
2018-07-25T23:50:15.194Z,23.13
2018-07-25T23:52:43.409Z,22.89
2018-07-25T23:55:11.622Z,22.62
2018-07-25T23:57:39.854Z,22.58
